sensor_id;sensor_type;location;lat;lon;timestamp;pressure;altitude;pressure_sealevel;temperature;humidity
5755;BME280;2902;42.130;24.732;2023-04-06T00:00:22;99293.69;;;4.12;71.79
5755;BME280;2902;42.130;24.732;2023-04-06T00:02:49;99299.13;;;4.19;71.31
5755;BME280;2902;42.130;24.732;2023-04-06T00:05:18;99297.19;;;4.21;71.08
5755;BME280;2902;42.130;24.732;2023-04-06T00:07:45;99297.94;;;4.13;71.66
5755;BME280;2902;42.130;24.732;2023-04-06T00:10:12;99287.81;;;4.18;71.23
5755;BME280;2902;42.130;24.732;2023-04-06T00:12:39;99287.41;;;4.05;71.58
5755;BME280;2902;42.130;24.732;2023-04-06T00:15:07;99286.78;;;4.11;71.32
5755;BME280;2902;42.130;24.732;2023-04-06T00:17:33;99286.63;;;4.05;72.07
5755;BME280;2902;42.130;24.732;2023-04-06T00:20:01;99280.84;;;4.01;72.30
5755;BME280;2902;42.130;24.732;2023-04-06T00:22:29;99284.00;;;4.05;71.61
5755;BME280;2902;42.130;24.732;2023-04-06T00:24:55;99280.38;;;4.06;71.46
5755;BME280;2902;42.130;24.732;2023-04-06T00:27:22;99280.22;;;4.07;72.13
5755;BME280;2902;42.130;24.732;2023-04-06T00:29:49;99273.31;;;4.06;72.22
5755;BME280;2902;42.130;24.732;2023-04-06T00:32:16;99267.03;;;3.91;72.03
5755;BME280;2902;42.130;24.732;2023-04-06T00:34:42;99273.75;;;3.94;71.95
5755;BME280;2902;42.130;24.732;2023-04-06T00:37:10;99271.28;;;3.92;72.01
5755;BME280;2902;42.130;24.732;2023-04-06T00:39:38;99274.09;;;3.99;72.01
5755;BME280;2902;42.130;24.732;2023-04-06T00:42:10;99272.91;;;3.85;71.77
5755;BME280;2902;42.130;24.732;2023-04-06T00:44:37;99269.78;;;3.82;71.73
5755;BME280;2902;42.130;24.732;2023-04-06T00:47:04;99263.66;;;3.65;72.61
5755;BME280;2902;42.130;24.732;2023-04-06T00:49:32;99259.72;;;3.69;73.08
5755;BME280;2902;42.130;24.732;2023-04-06T00:51:59;99261.06;;;3.73;72.43
5755;BME280;2902;42.130;24.732;2023-04-06T00:54:26;99247.72;;;3.59;73.24
5755;BME280;2902;42.130;24.732;2023-04-06T00:56:55;99259.66;;;3.53;73.22
5755;BME280;2902;42.130;24.732;2023-04-06T00:59:22;99253.44;;;3.54;72.20
5755;BME280;2902;42.130;24.732;2023-04-06T01:01:49;99253.78;;;3.59;72.94
5755;BME280;2902;42.130;24.732;2023-04-06T01:04:15;99264.81;;;3.63;72.50
5755;BME280;2902;42.130;24.732;2023-04-06T01:06:42;99253.47;;;3.62;72.37
5755;BME280;2902;42.130;24.732;2023-04-06T01:09:09;99249.22;;;3.69;72.85
5755;BME280;2902;42.130;24.732;2023-04-06T01:11:37;99245.50;;;3.80;72.33
5755;BME280;2902;42.130;24.732;2023-04-06T01:14:06;99227.50;;;3.59;72.80
5755;BME280;2902;42.130;24.732;2023-04-06T01:16:33;99243.56;;;3.56;72.03
5755;BME280;2902;42.130;24.732;2023-04-06T01:19:00;99239.28;;;3.47;72.69
5755;BME280;2902;42.130;24.732;2023-04-06T01:21:27;99234.66;;;3.41;73.59
5755;BME280;2902;42.130;24.732;2023-04-06T01:23:55;99232.06;;;3.49;73.14
5755;BME280;2902;42.130;24.732;2023-04-06T01:26:22;99223.44;;;3.31;72.79
5755;BME280;2902;42.130;24.732;2023-04-06T01:28:49;99221.19;;;3.36;73.45
5755;BME280;2902;42.130;24.732;2023-04-06T01:31:16;99224.81;;;3.43;72.53
5755;BME280;2902;42.130;24.732;2023-04-06T01:33:43;99235.34;;;3.51;72.84
5755;BME280;2902;42.130;24.732;2023-04-06T01:36:10;99224.84;;;3.51;71.90
5755;BME280;2902;42.130;24.732;2023-04-06T01:38:37;99222.91;;;3.53;71.67
5755;BME280;2902;42.130;24.732;2023-04-06T01:41:05;99216.63;;;3.46;71.75
5755;BME280;2902;42.130;24.732;2023-04-06T01:43:32;99223.34;;;3.41;72.34
5755;BME280;2902;42.130;24.732;2023-04-06T01:45:59;99208.41;;;3.41;72.56
5755;BME280;2902;42.130;24.732;2023-04-06T01:48:26;99211.50;;;3.37;72.63
5755;BME280;2902;42.130;24.732;2023-04-06T01:50:52;99208.06;;;3.36;72.60
5755;BME280;2902;42.130;24.732;2023-04-06T01:53:19;99211.19;;;3.40;72.15
5755;BME280;2902;42.130;24.732;2023-04-06T01:55:46;99211.66;;;3.35;72.70
5755;BME280;2902;42.130;24.732;2023-04-06T01:58:14;99210.50;;;3.38;72.52
5755;BME280;2902;42.130;24.732;2023-04-06T02:00:41;99204.44;;;3.29;73.54
5755;BME280;2902;42.130;24.732;2023-04-06T02:03:08;99200.50;;;3.33;73.90
5755;BME280;2902;42.130;24.732;2023-04-06T02:05:35;99194.13;;;3.36;73.43
5755;BME280;2902;42.130;24.732;2023-04-06T02:08:03;99196.31;;;3.15;73.73
5755;BME280;2902;42.130;24.732;2023-04-06T02:10:30;99202.56;;;3.22;74.24
5755;BME280;2902;42.130;24.732;2023-04-06T02:12:57;99194.84;;;3.12;74.88
5755;BME280;2902;42.130;24.732;2023-04-06T02:15:25;99196.72;;;3.02;75.03
5755;BME280;2902;42.130;24.732;2023-04-06T02:17:52;99204.75;;;3.01;74.81
5755;BME280;2902;42.130;24.732;2023-04-06T02:20:19;99197.03;;;2.99;75.13
5755;BME280;2902;42.130;24.732;2023-04-06T02:22:46;99190.69;;;3.02;76.16
5755;BME280;2902;42.130;24.732;2023-04-06T02:25:13;99201.19;;;3.02;75.25
5755;BME280;2902;42.130;24.732;2023-04-06T02:27:40;99199.31;;;2.94;76.20
5755;BME280;2902;42.130;24.732;2023-04-06T02:30:07;99199.66;;;2.99;76.19
5755;BME280;2902;42.130;24.732;2023-04-06T02:32:36;99205.28;;;3.04;75.63
5755;BME280;2902;42.130;24.732;2023-04-06T02:35:03;99209.19;;;3.00;75.45
5755;BME280;2902;42.130;24.732;2023-04-06T02:37:29;99214.34;;;2.84;76.17
5755;BME280;2902;42.130;24.732;2023-04-06T02:39:56;99216.47;;;2.89;77.12
5755;BME280;2902;42.130;24.732;2023-04-06T02:42:23;99209.75;;;2.86;76.29
5755;BME280;2902;42.130;24.732;2023-04-06T02:44:50;99203.00;;;2.84;76.59
5755;BME280;2902;42.130;24.732;2023-04-06T02:47:16;99216.59;;;2.79;76.70
5755;BME280;2902;42.130;24.732;2023-04-06T02:49:45;99203.94;;;2.75;76.27
5755;BME280;2902;42.130;24.732;2023-04-06T02:52:11;99216.06;;;2.76;76.66
5755;BME280;2902;42.130;24.732;2023-04-06T02:54:38;99216.03;;;2.93;75.53
5755;BME280;2902;42.130;24.732;2023-04-06T02:57:05;99212.38;;;2.86;75.60
5755;BME280;2902;42.130;24.732;2023-04-06T02:59:32;99210.22;;;2.82;75.82
5755;BME280;2902;42.130;24.732;2023-04-06T03:01:58;99203.38;;;2.89;75.48
5755;BME280;2902;42.130;24.732;2023-04-06T03:04:25;99220.28;;;2.94;75.81
5755;BME280;2902;42.130;24.732;2023-04-06T03:06:54;99213.50;;;2.84;75.66
5755;BME280;2902;42.130;24.732;2023-04-06T03:09:21;99214.19;;;2.86;76.33
5755;BME280;2902;42.130;24.732;2023-04-06T03:11:48;99200.19;;;2.77;76.65
5755;BME280;2902;42.130;24.732;2023-04-06T03:14:14;99217.94;;;2.83;76.46
5755;BME280;2902;42.130;24.732;2023-04-06T03:16:42;99210.13;;;2.91;76.07
5755;BME280;2902;42.130;24.732;2023-04-06T03:19:09;99211.22;;;2.89;75.58
5755;BME280;2902;42.130;24.732;2023-04-06T03:21:36;99195.94;;;2.76;75.79
5755;BME280;2902;42.130;24.732;2023-04-06T03:24:05;99217.94;;;2.83;75.99
5755;BME280;2902;42.130;24.732;2023-04-06T03:26:32;99210.44;;;2.88;76.63
5755;BME280;2902;42.130;24.732;2023-04-06T03:28:59;99216.66;;;2.87;76.58
5755;BME280;2902;42.130;24.732;2023-04-06T03:31:25;99220.63;;;2.91;76.17
5755;BME280;2902;42.130;24.732;2023-04-06T03:33:52;99195.00;;;2.85;76.07
5755;BME280;2902;42.130;24.732;2023-04-06T03:36:19;99222.75;;;2.96;76.21
5755;BME280;2902;42.130;24.732;2023-04-06T03:38:46;99214.09;;;2.95;75.47
5755;BME280;2902;42.130;24.732;2023-04-06T03:41:14;99216.72;;;2.95;76.36
5755;BME280;2902;42.130;24.732;2023-04-06T03:43:41;99228.31;;;2.93;76.32
5755;BME280;2902;42.130;24.732;2023-04-06T03:46:07;99218.03;;;2.99;76.01
5755;BME280;2902;42.130;24.732;2023-04-06T03:48:34;99215.78;;;2.79;77.18
5755;BME280;2902;42.130;24.732;2023-04-06T03:51:01;99214.63;;;2.81;76.48
5755;BME280;2902;42.130;24.732;2023-04-06T03:53:28;99212.28;;;2.96;76.36
5755;BME280;2902;42.130;24.732;2023-04-06T03:55:55;99212.91;;;2.90;76.89
5755;BME280;2902;42.130;24.732;2023-04-06T03:58:23;99208.16;;;2.93;76.59
5755;BME280;2902;42.130;24.732;2023-04-06T04:00:50;99221.31;;;3.01;76.56
5755;BME280;2902;42.130;24.732;2023-04-06T04:03:17;99217.72;;;3.02;75.89
5755;BME280;2902;42.130;24.732;2023-04-06T04:05:43;99215.78;;;3.04;76.77
5755;BME280;2902;42.130;24.732;2023-04-06T04:08:10;99212.81;;;3.07;76.19
5755;BME280;2902;42.130;24.732;2023-04-06T04:10:37;99214.84;;;3.13;75.62
5755;BME280;2902;42.130;24.732;2023-04-06T04:13:04;99211.63;;;3.27;75.56
5755;BME280;2902;42.130;24.732;2023-04-06T04:15:32;99207.00;;;3.21;75.06
5755;BME280;2902;42.130;24.732;2023-04-06T04:17:58;99202.94;;;3.27;75.49
5755;BME280;2902;42.130;24.732;2023-04-06T04:20:25;99208.25;;;3.43;75.42
5755;BME280;2902;42.130;24.732;2023-04-06T04:22:53;99215.38;;;3.58;74.01
5755;BME280;2902;42.130;24.732;2023-04-06T04:25:20;99212.31;;;3.87;73.47
5755;BME280;2902;42.130;24.732;2023-04-06T04:27:46;99222.59;;;4.30;71.65
5755;BME280;2902;42.130;24.732;2023-04-06T04:30:13;99216.19;;;4.72;74.68
5755;BME280;2902;42.130;24.732;2023-04-06T04:32:42;99226.25;;;5.31;73.44
5755;BME280;2902;42.130;24.732;2023-04-06T04:35:09;99220.63;;;5.50;69.46
5755;BME280;2902;42.130;24.732;2023-04-06T04:37:36;99221.72;;;5.09;68.31
5755;BME280;2902;42.130;24.732;2023-04-06T04:40:04;99221.47;;;4.64;69.50
5755;BME280;2902;42.130;24.732;2023-04-06T04:42:31;99210.94;;;4.40;70.78
5755;BME280;2902;42.130;24.732;2023-04-06T04:44:58;99206.66;;;4.31;70.83
5755;BME280;2902;42.130;24.732;2023-04-06T04:47:25;99213.56;;;4.24;70.71
5755;BME280;2902;42.130;24.732;2023-04-06T04:49:53;99217.50;;;4.20;70.78
5755;BME280;2902;42.130;24.732;2023-04-06T04:52:20;99210.91;;;4.16;71.35
5755;BME280;2902;42.130;24.732;2023-04-06T04:54:46;99213.56;;;4.24;70.97
5755;BME280;2902;42.130;24.732;2023-04-06T04:57:13;99217.81;;;4.17;71.80
5755;BME280;2902;42.130;24.732;2023-04-06T04:59:40;99218.31;;;4.21;71.89
5755;BME280;2902;42.130;24.732;2023-04-06T05:02:06;99210.41;;;4.05;71.70
5755;BME280;2902;42.130;24.732;2023-04-06T05:04:33;99213.22;;;4.11;71.59
5755;BME280;2902;42.130;24.732;2023-04-06T05:07:06;99213.41;;;4.26;70.85
5755;BME280;2902;42.130;24.732;2023-04-06T05:09:33;99214.22;;;4.26;70.89
5755;BME280;2902;42.130;24.732;2023-04-06T05:12:00;99207.47;;;4.40;70.60
5755;BME280;2902;42.130;24.732;2023-04-06T05:14:27;99209.13;;;4.49;70.63
5755;BME280;2902;42.130;24.732;2023-04-06T05:16:54;99211.59;;;4.58;70.29
5755;BME280;2902;42.130;24.732;2023-04-06T05:19:21;99196.63;;;4.59;69.66
5755;BME280;2902;42.130;24.732;2023-04-06T05:21:48;99212.25;;;4.84;69.76
5755;BME280;2902;42.130;24.732;2023-04-06T05:24:16;99203.66;;;4.98;68.80
5755;BME280;2902;42.130;24.732;2023-04-06T05:26:42;99210.50;;;5.15;68.09
5755;BME280;2902;42.130;24.732;2023-04-06T05:29:10;99202.16;;;5.04;67.14
5755;BME280;2902;42.130;24.732;2023-04-06T05:31:37;99204.78;;;5.12;67.98
5755;BME280;2902;42.130;24.732;2023-04-06T05:34:04;99191.78;;;5.10;67.83
5755;BME280;2902;42.130;24.732;2023-04-06T05:36:31;99209.16;;;5.27;67.69
5755;BME280;2902;42.130;24.732;2023-04-06T05:38:58;99207.63;;;5.49;66.75
5755;BME280;2902;42.130;24.732;2023-04-06T05:41:26;99209.66;;;5.69;66.96
5755;BME280;2902;42.130;24.732;2023-04-06T05:43:53;99205.03;;;5.71;66.59
5755;BME280;2902;42.130;24.732;2023-04-06T05:46:20;99199.88;;;5.86;65.82
5755;BME280;2902;42.130;24.732;2023-04-06T05:48:46;99202.84;;;6.59;63.02
5755;BME280;2902;42.130;24.732;2023-04-06T05:51:13;99214.13;;;6.90;61.94
5755;BME280;2902;42.130;24.732;2023-04-06T05:53:40;99226.78;;;7.09;60.82
5755;BME280;2902;42.130;24.732;2023-04-06T05:56:07;99218.97;;;7.59;58.81
5755;BME280;2902;42.130;24.732;2023-04-06T05:58:35;99218.47;;;8.20;57.16
5755;BME280;2902;42.130;24.732;2023-04-06T06:01:02;99218.91;;;8.59;54.61
5755;BME280;2902;42.130;24.732;2023-04-06T06:03:30;99206.88;;;8.84;54.15
5755;BME280;2902;42.130;24.732;2023-04-06T06:06:00;99213.84;;;8.64;53.80
5755;BME280;2902;42.130;24.732;2023-04-06T06:08:27;99214.59;;;8.79;53.58
5755;BME280;2902;42.130;24.732;2023-04-06T06:10:54;99210.66;;;8.96;54.39
5755;BME280;2902;42.130;24.732;2023-04-06T06:13:21;99205.84;;;9.40;55.39
5755;BME280;2902;42.130;24.732;2023-04-06T06:15:50;99218.56;;;9.98;52.92
5755;BME280;2902;42.130;24.732;2023-04-06T06:18:17;99223.72;;;10.06;51.03
5755;BME280;2902;42.130;24.732;2023-04-06T06:20:43;99213.16;;;10.19;51.78
5755;BME280;2902;42.130;24.732;2023-04-06T06:23:11;99213.19;;;10.32;49.55
5755;BME280;2902;42.130;24.732;2023-04-06T06:25:37;99201.13;;;10.23;50.46
5755;BME280;2902;42.130;24.732;2023-04-06T06:28:04;99200.69;;;10.13;51.83
5755;BME280;2902;42.130;24.732;2023-04-06T06:30:31;99209.66;;;10.18;49.50
5755;BME280;2902;42.130;24.732;2023-04-06T06:32:59;99210.72;;;10.24;48.81
5755;BME280;2902;42.130;24.732;2023-04-06T06:35:26;99206.19;;;10.05;48.44
5755;BME280;2902;42.130;24.732;2023-04-06T06:37:53;99208.41;;;10.08;48.95
5755;BME280;2902;42.130;24.732;2023-04-06T06:40:19;99205.75;;;10.08;48.96
5755;BME280;2902;42.130;24.732;2023-04-06T06:42:49;99211.38;;;10.45;47.70
5755;BME280;2902;42.130;24.732;2023-04-06T06:45:16;99205.19;;;10.25;48.32
5755;BME280;2902;42.130;24.732;2023-04-06T06:47:43;99195.38;;;10.13;46.86
5755;BME280;2902;42.130;24.732;2023-04-06T06:50:11;99205.44;;;9.77;48.64
5755;BME280;2902;42.130;24.732;2023-04-06T06:52:39;99197.31;;;9.85;48.92
5755;BME280;2902;42.130;24.732;2023-04-06T06:55:07;99174.03;;;9.87;50.23
5755;BME280;2902;42.130;24.732;2023-04-06T06:57:34;99191.38;;;10.56;48.39
5755;BME280;2902;42.130;24.732;2023-04-06T07:00:01;99200.75;;;10.65;48.58
5755;BME280;2902;42.130;24.732;2023-04-06T07:02:28;99203.22;;;10.53;47.90
5755;BME280;2902;42.130;24.732;2023-04-06T07:04:55;99189.75;;;10.81;48.41
5755;BME280;2902;42.130;24.732;2023-04-06T07:07:23;99201.38;;;10.80;48.53
5755;BME280;2902;42.130;24.732;2023-04-06T07:09:50;99191.75;;;10.59;48.65
5755;BME280;2902;42.130;24.732;2023-04-06T07:12:16;99197.91;;;10.86;48.12
5755;BME280;2902;42.130;24.732;2023-04-06T07:14:43;99198.47;;;11.34;48.34
5755;BME280;2902;42.130;24.732;2023-04-06T07:17:10;99195.00;;;11.33;45.98
5755;BME280;2902;42.130;24.732;2023-04-06T07:19:37;99198.69;;;11.19;46.43
5755;BME280;2902;42.130;24.732;2023-04-06T07:22:03;99193.41;;;11.06;46.72
5755;BME280;2902;42.130;24.732;2023-04-06T07:24:32;99187.66;;;11.22;46.69
5755;BME280;2902;42.130;24.732;2023-04-06T07:26:59;99200.75;;;11.17;45.76
5755;BME280;2902;42.130;24.732;2023-04-06T07:29:26;99202.97;;;11.33;45.65
5755;BME280;2902;42.130;24.732;2023-04-06T07:31:53;99206.56;;;11.71;43.79
5755;BME280;2902;42.130;24.732;2023-04-06T07:34:20;99191.81;;;11.75;43.87
5755;BME280;2902;42.130;24.732;2023-04-06T07:36:46;99197.78;;;11.58;44.34
5755;BME280;2902;42.130;24.732;2023-04-06T07:39:13;99208.66;;;11.43;44.41
5755;BME280;2902;42.130;24.732;2023-04-06T07:41:42;99207.25;;;11.41;45.63
5755;BME280;2902;42.130;24.732;2023-04-06T07:44:08;99207.16;;;11.86;44.34
5755;BME280;2902;42.130;24.732;2023-04-06T07:46:35;99214.50;;;11.84;44.24
5755;BME280;2902;42.130;24.732;2023-04-06T07:49:02;99197.31;;;11.93;43.96
5755;BME280;2902;42.130;24.732;2023-04-06T07:51:29;99202.31;;;11.57;44.69
5755;BME280;2902;42.130;24.732;2023-04-06T07:53:56;99196.78;;;12.09;44.86
5755;BME280;2902;42.130;24.732;2023-04-06T07:56:23;99198.81;;;12.51;47.37
5755;BME280;2902;42.130;24.732;2023-04-06T07:58:51;99214.25;;;12.36;43.28
5755;BME280;2902;42.130;24.732;2023-04-06T08:01:20;99188.53;;;12.55;47.67
5755;BME280;2902;42.130;24.732;2023-04-06T08:03:47;99190.88;;;12.69;43.62
5755;BME280;2902;42.130;24.732;2023-04-06T08:06:14;99193.53;;;12.69;43.66
5755;BME280;2902;42.130;24.732;2023-04-06T08:08:41;99192.06;;;12.42;44.34
5755;BME280;2902;42.130;24.732;2023-04-06T08:11:08;99195.81;;;12.35;43.87
5755;BME280;2902;42.130;24.732;2023-04-06T08:13:35;99189.28;;;12.86;43.66
5755;BME280;2902;42.130;24.732;2023-04-06T08:16:04;99194.31;;;13.01;42.09
5755;BME280;2902;42.130;24.732;2023-04-06T08:18:31;99193.75;;;12.99;43.92
5755;BME280;2902;42.130;24.732;2023-04-06T08:20:58;99196.25;;;12.87;42.46
5755;BME280;2902;42.130;24.732;2023-04-06T08:23:25;99190.66;;;12.95;42.71
5755;BME280;2902;42.130;24.732;2023-04-06T08:25:51;99152.31;;;12.72;43.74
5755;BME280;2902;42.130;24.732;2023-04-06T08:28:19;99168.91;;;12.98;44.04
5755;BME280;2902;42.130;24.732;2023-04-06T08:30:46;99154.31;;;12.52;43.79
5755;BME280;2902;42.130;24.732;2023-04-06T08:33:14;99147.75;;;13.03;48.91
5755;BME280;2902;42.130;24.732;2023-04-06T08:35:41;99165.41;;;13.04;42.95
5755;BME280;2902;42.130;24.732;2023-04-06T08:38:08;99160.63;;;13.31;41.97
5755;BME280;2902;42.130;24.732;2023-04-06T08:40:36;99157.00;;;13.61;41.52
5755;BME280;2902;42.130;24.732;2023-04-06T08:43:03;99150.75;;;13.31;41.63
5755;BME280;2902;42.130;24.732;2023-04-06T08:45:34;99152.38;;;13.32;41.33
5755;BME280;2902;42.130;24.732;2023-04-06T08:48:02;99140.75;;;13.45;42.79
5755;BME280;2902;42.130;24.732;2023-04-06T08:50:32;99147.94;;;13.26;42.37
5755;BME280;2902;42.130;24.732;2023-04-06T08:53:01;99134.22;;;13.41;45.16
5755;BME280;2902;42.130;24.732;2023-04-06T08:55:27;99131.81;;;14.57;46.09
5755;BME280;2902;42.130;24.732;2023-04-06T08:57:55;99113.00;;;14.75;44.86
5755;BME280;2902;42.130;24.732;2023-04-06T09:00:22;99126.84;;;14.95;39.95
5755;BME280;2902;42.130;24.732;2023-04-06T09:02:51;99120.91;;;14.70;39.59
5755;BME280;2902;42.130;24.732;2023-04-06T09:05:21;99131.22;;;13.85;39.62
5755;BME280;2902;42.130;24.732;2023-04-06T09:07:51;99124.25;;;14.54;45.32
5755;BME280;2902;42.130;24.732;2023-04-06T09:10:18;99112.50;;;14.44;40.04
5755;BME280;2902;42.130;24.732;2023-04-06T09:12:46;99094.84;;;14.31;45.41
5755;BME280;2902;42.130;24.732;2023-04-06T09:15:21;99111.00;;;14.18;40.57
5755;BME280;2902;42.130;24.732;2023-04-06T09:17:48;99107.13;;;14.21;39.41
5755;BME280;2902;42.130;24.732;2023-04-06T09:20:22;99102.19;;;14.70;43.18
5755;BME280;2902;42.130;24.732;2023-04-06T09:22:52;99110.44;;;15.03;39.39
5755;BME280;2902;42.130;24.732;2023-04-06T09:25:20;99087.78;;;14.83;41.10
5755;BME280;2902;42.130;24.732;2023-04-06T09:27:49;99108.13;;;14.72;40.02
5755;BME280;2902;42.130;24.732;2023-04-06T09:30:24;99081.34;;;15.18;43.02
5755;BME280;2902;42.130;24.732;2023-04-06T09:32:53;99060.22;;;14.36;39.19
5755;BME280;2902;42.130;24.732;2023-04-06T09:35:21;99097.22;;;14.21;39.32
5755;BME280;2902;42.130;24.732;2023-04-06T09:37:49;99091.94;;;14.03;40.04
5755;BME280;2902;42.130;24.732;2023-04-06T09:40:18;99092.75;;;14.45;40.46
5755;BME280;2902;42.130;24.732;2023-04-06T09:42:48;99086.75;;;14.72;38.57
5755;BME280;2902;42.130;24.732;2023-04-06T09:45:15;99086.59;;;14.44;39.67
5755;BME280;2902;42.130;24.732;2023-04-06T09:47:45;99073.72;;;14.64;43.01
5755;BME280;2902;42.130;24.732;2023-04-06T09:50:13;99070.84;;;15.28;40.15
5755;BME280;2902;42.130;24.732;2023-04-06T09:52:42;99074.13;;;15.30;36.47
5755;BME280;2902;42.130;24.732;2023-04-06T09:55:20;99072.53;;;15.57;38.21
5755;BME280;2902;42.130;24.732;2023-04-06T09:57:52;99085.38;;;16.12;34.80
5755;BME280;2902;42.130;24.732;2023-04-06T10:00:22;99085.69;;;15.59;33.92
5755;BME280;2902;42.130;24.732;2023-04-06T10:02:52;99074.72;;;14.98;35.84
5755;BME280;2902;42.130;24.732;2023-04-06T10:05:28;99079.16;;;14.35;37.15
5755;BME280;2902;42.130;24.732;2023-04-06T10:08:02;99061.72;;;14.55;37.55
5755;BME280;2902;42.130;24.732;2023-04-06T10:10:32;99077.06;;;14.60;36.33
5755;BME280;2902;42.130;24.732;2023-04-06T10:12:59;99077.56;;;14.68;38.18
5755;BME280;2902;42.130;24.732;2023-04-06T10:15:27;99078.38;;;14.80;35.91
5755;BME280;2902;42.130;24.732;2023-04-06T10:17:55;99063.44;;;15.07;40.59
5755;BME280;2902;42.130;24.732;2023-04-06T10:20:27;99062.31;;;15.82;37.80
5755;BME280;2902;42.130;24.732;2023-04-06T10:22:59;99058.00;;;16.10;37.30
5755;BME280;2902;42.130;24.732;2023-04-06T10:25:28;99061.38;;;16.05;34.90
5755;BME280;2902;42.130;24.732;2023-04-06T10:28:05;99068.91;;;16.20;36.38
5755;BME280;2902;42.130;24.732;2023-04-06T10:30:33;99042.22;;;15.97;33.63
5755;BME280;2902;42.130;24.732;2023-04-06T10:33:00;99031.59;;;14.94;34.99
5755;BME280;2902;42.130;24.732;2023-04-06T10:35:37;99020.00;;;14.77;36.04
5755;BME280;2902;42.130;24.732;2023-04-06T10:38:05;99020.00;;;14.89;36.97
5755;BME280;2902;42.130;24.732;2023-04-06T10:40:35;99013.50;;;15.24;36.06
5755;BME280;2902;42.130;24.732;2023-04-06T10:43:12;99019.19;;;15.39;36.91
5755;BME280;2902;42.130;24.732;2023-04-06T10:45:40;99016.75;;;15.94;36.70
5755;BME280;2902;42.130;24.732;2023-04-06T10:48:15;99016.28;;;16.47;38.75
5755;BME280;2902;42.130;24.732;2023-04-06T10:50:44;99009.88;;;16.86;34.53
5755;BME280;2902;42.130;24.732;2023-04-06T10:53:11;99023.50;;;17.01;33.51
5755;BME280;2902;42.130;24.732;2023-04-06T10:55:39;99018.91;;;16.80;32.49
5755;BME280;2902;42.130;24.732;2023-04-06T10:58:06;99008.63;;;16.39;32.96
5755;BME280;2902;42.130;24.732;2023-04-06T11:00:35;99001.97;;;16.58;37.78
5755;BME280;2902;42.130;24.732;2023-04-06T11:03:02;98993.69;;;17.19;36.80
5755;BME280;2902;42.130;24.732;2023-04-06T11:05:28;98999.19;;;17.34;32.21
5755;BME280;2902;42.130;24.732;2023-04-06T11:07:56;98991.31;;;16.30;32.09
5755;BME280;2902;42.130;24.732;2023-04-06T11:10:22;98991.56;;;15.95;33.14
5755;BME280;2902;42.130;24.732;2023-04-06T11:12:54;98976.13;;;16.19;34.28
5755;BME280;2902;42.130;24.732;2023-04-06T11:15:21;98984.75;;;16.04;32.81
5755;BME280;2902;42.130;24.732;2023-04-06T11:17:49;98980.69;;;15.85;33.36
5755;BME280;2902;42.130;24.732;2023-04-06T11:20:16;98979.06;;;16.01;34.12
5755;BME280;2902;42.130;24.732;2023-04-06T11:22:49;98975.66;;;15.88;34.13
5755;BME280;2902;42.130;24.732;2023-04-06T11:25:16;98973.09;;;15.09;34.29
5755;BME280;2902;42.130;24.732;2023-04-06T11:27:43;98963.34;;;15.31;34.37
5755;BME280;2902;42.130;24.732;2023-04-06T11:30:11;98976.13;;;15.41;35.05
5755;BME280;2902;42.130;24.732;2023-04-06T11:32:39;98972.72;;;15.73;34.17
5755;BME280;2902;42.130;24.732;2023-04-06T11:35:10;98979.88;;;15.84;33.19
5755;BME280;2902;42.130;24.732;2023-04-06T11:37:38;98977.44;;;15.83;33.47
5755;BME280;2902;42.130;24.732;2023-04-06T11:40:08;98965.72;;;15.72;34.16
5755;BME280;2902;42.130;24.732;2023-04-06T11:42:35;98977.69;;;15.53;33.20
5755;BME280;2902;42.130;24.732;2023-04-06T11:45:02;98966.72;;;15.27;34.86
5755;BME280;2902;42.130;24.732;2023-04-06T11:47:30;98958.66;;;15.10;34.37
5755;BME280;2902;42.130;24.732;2023-04-06T11:50:05;98962.16;;;14.48;36.10
5755;BME280;2902;42.130;24.732;2023-04-06T11:52:34;98964.69;;;14.20;36.29
5755;BME280;2902;42.130;24.732;2023-04-06T11:55:10;98967.09;;;13.87;36.71
5755;BME280;2902;42.130;24.732;2023-04-06T11:57:37;98961.88;;;13.92;37.07
5755;BME280;2902;42.130;24.732;2023-04-06T12:00:06;98967.31;;;13.86;37.70
5755;BME280;2902;42.130;24.732;2023-04-06T12:02:32;98959.31;;;13.97;37.59
5755;BME280;2902;42.130;24.732;2023-04-06T12:04:59;98955.97;;;14.13;37.85
5755;BME280;2902;42.130;24.732;2023-04-06T12:07:26;98960.75;;;14.34;38.56
5755;BME280;2902;42.130;24.732;2023-04-06T12:09:54;98952.97;;;14.56;37.62
5755;BME280;2902;42.130;24.732;2023-04-06T12:12:21;98951.22;;;14.61;37.35
5755;BME280;2902;42.130;24.732;2023-04-06T12:14:48;98958.75;;;14.18;37.91
5755;BME280;2902;42.130;24.732;2023-04-06T12:17:14;98953.53;;;14.00;38.35
5755;BME280;2902;42.130;24.732;2023-04-06T12:19:41;98954.91;;;13.80;38.28
5755;BME280;2902;42.130;24.732;2023-04-06T12:22:08;98947.00;;;13.96;38.54
5755;BME280;2902;42.130;24.732;2023-04-06T12:24:35;98946.09;;;14.14;37.84
5755;BME280;2902;42.130;24.732;2023-04-06T12:27:03;98947.28;;;14.29;37.43
5755;BME280;2902;42.130;24.732;2023-04-06T12:29:30;98954.16;;;14.48;36.79
5755;BME280;2902;42.130;24.732;2023-04-06T12:31:57;98950.31;;;14.21;37.45
5755;BME280;2902;42.130;24.732;2023-04-06T12:34:23;98953.88;;;13.92;38.25
5755;BME280;2902;42.130;24.732;2023-04-06T12:36:50;98943.56;;;14.07;38.94
5755;BME280;2902;42.130;24.732;2023-04-06T12:39:18;98946.50;;;14.29;38.30
5755;BME280;2902;42.130;24.732;2023-04-06T12:41:45;98944.50;;;14.24;37.40
5755;BME280;2902;42.130;24.732;2023-04-06T12:44:13;98939.72;;;14.49;37.90
5755;BME280;2902;42.130;24.732;2023-04-06T12:46:40;98932.03;;;14.64;38.07
5755;BME280;2902;42.130;24.732;2023-04-06T12:49:08;98929.38;;;14.64;36.23
5755;BME280;2902;42.130;24.732;2023-04-06T12:51:35;98930.09;;;14.48;36.21
5755;BME280;2902;42.130;24.732;2023-04-06T12:54:02;98932.22;;;14.23;36.87
5755;BME280;2902;42.130;24.732;2023-04-06T12:56:28;98942.41;;;14.26;36.76
5755;BME280;2902;42.130;24.732;2023-04-06T12:58:56;98937.38;;;14.53;36.84
5755;BME280;2902;42.130;24.732;2023-04-06T13:01:24;98923.91;;;14.59;36.38
5755;BME280;2902;42.130;24.732;2023-04-06T13:03:53;98934.59;;;14.71;36.59
5755;BME280;2902;42.130;24.732;2023-04-06T13:06:19;98935.59;;;14.81;35.92
5755;BME280;2902;42.130;24.732;2023-04-06T13:08:47;98934.97;;;14.51;36.23
5755;BME280;2902;42.130;24.732;2023-04-06T13:11:15;98942.53;;;14.31;36.64
5755;BME280;2902;42.130;24.732;2023-04-06T13:13:42;98927.53;;;14.07;37.51
5755;BME280;2902;42.130;24.732;2023-04-06T13:16:09;98934.94;;;13.82;37.17
5755;BME280;2902;42.130;24.732;2023-04-06T13:18:37;98937.13;;;13.85;37.67